Time;durP1;ratioP1;P1;durP2;ratioP2;P2;SDS_P1;SDS_P2;PMS_P1;PMS_P2;Temp;Humidity;BMP_temperature;BMP_pressure;BME280_temperature;BME280_humidity;BME280_pressure;Samples;Min_cycle;Max_cycle;Signal;HPM_P1;HPM_P2
2023/08/02 00:00:47;;;;;;;5.40;4.60;;;;;;;-140.66;100.00;55571.53;5079534;28;20035;-75
2023/08/02 00:03:33;;;;;;;8.68;4.97;;;;;;;-140.66;100.00;55571.53;5093999;28;20020;-74
2023/08/02 00:06:19;;;;;;;5.63;5.10;;;;;;;-140.66;100.00;55571.53;5093738;28;20400;-75
2023/08/02 00:09:05;;;;;;;6.45;4.82;;;;;;;-140.66;100.00;55571.53;5095880;28;20031;-74
2023/08/02 00:11:51;;;;;;;5.43;4.93;;;;;;;-140.66;100.00;55571.53;5080065;28;20090;-75
2023/08/02 00:14:36;;;;;;;5.50;4.93;;;;;;;-140.66;100.00;55571.53;5093956;28;20032;-74
2023/08/02 00:17:22;;;;;;;5.70;5.15;;;;;;;-140.66;100.00;55571.53;5093050;28;20024;-75
2023/08/02 00:20:08;;;;;;;7.40;4.60;;;;;;;-140.66;100.00;55571.53;5094444;28;20113;-75
2023/08/02 00:22:54;;;;;;;5.35;4.85;;;;;;;-140.66;100.00;55571.53;5080574;28;20082;-74
2023/08/02 00:25:39;;;;;;;6.38;5.03;;;;;;;-140.66;100.00;55571.53;5093222;28;20056;-75
2023/08/02 00:28:25;;;;;;;5.20;4.70;;;;;;;-140.66;100.00;55571.53;5094397;28;20089;-73
2023/08/02 00:31:11;;;;;;;5.05;4.55;;;;;;;-140.66;100.00;55571.53;5095417;28;20031;-74
2023/08/02 00:33:57;;;;;;;6.85;4.90;;;;;;;-140.66;100.00;55571.53;5096829;28;20329;-73
2023/08/02 00:36:43;;;;;;;5.40;4.85;;;;;;;-140.66;100.00;55571.53;5099943;27;20039;-73
2023/08/02 00:39:28;;;;;;;6.82;4.70;;;;;;;-140.66;100.00;55571.53;5084304;28;20028;-73
2023/08/02 00:42:14;;;;;;;6.22;5.03;;;;;;;-140.66;100.00;55571.53;5097971;28;20024;-74
2023/08/02 00:45:00;;;;;;;5.00;4.47;;;;;;;-140.66;100.00;55571.53;5098405;28;20453;-74
2023/08/02 00:47:46;;;;;;;6.32;5.05;;;;;;;-140.66;100.00;55571.53;5097463;28;20027;-75
2023/08/02 00:50:33;;;;;;;6.38;5.30;;;;;;;-140.66;100.00;55571.53;5098273;28;20094;-74
2023/08/02 00:53:21;;;;;;;5.53;4.65;;;;;;;-140.66;100.00;55571.53;5106262;28;20016;-73
2023/08/02 00:56:07;;;;;;;5.78;4.85;;;;;;;-140.66;100.00;55571.53;5083938;28;20114;-75
2023/08/02 00:58:53;;;;;;;5.53;5.00;;;;;;;-140.66;100.00;55571.53;5097963;28;20055;-74
2023/08/02 01:01:38;;;;;;;5.20;4.70;;;;;;;-140.66;100.00;55571.53;5081966;28;20020;-75
2023/08/02 01:04:24;;;;;;;5.38;4.88;;;;;;;-140.66;100.00;55571.53;5082536;28;20040;-74
2023/08/02 01:07:16;;;;;;;6.05;4.55;;;;;;;-140.66;100.00;55571.53;5097238;28;20028;-75
2023/08/02 01:10:29;;;;;;;5.40;4.90;;;;;;;-140.66;100.00;55571.53;5086478;28;20042;-75
2023/08/02 01:13:17;;;;;;;7.00;4.88;;;;;;;-140.66;100.00;55571.53;5100241;28;20099;-74
2023/08/02 01:16:03;;;;;;;6.20;5.20;;;;;;;-140.66;100.00;55571.53;5098645;28;20425;-74
2023/08/02 01:18:50;;;;;;;5.13;4.63;;;;;;;-140.66;100.00;55571.53;5097784;28;20080;-76
2023/08/02 01:21:35;;;;;;;5.80;4.78;;;;;;;-140.66;100.00;55571.53;5097244;28;20024;-75
2023/08/02 01:24:24;;;;;;;5.75;4.88;;;;;;;-140.66;100.00;55571.53;5098126;28;20020;-74
2023/08/02 01:27:23;;;;;;;8.13;5.05;;;;;;;-140.66;100.00;55571.53;5082815;28;20126;-75
2023/08/02 01:30:13;;;;;;;5.75;4.97;;;;;;;-140.66;100.00;55571.53;5097578;28;20475;-74
2023/08/02 01:32:59;;;;;;;7.13;5.45;;;;;;;-140.66;100.00;55571.53;5097124;28;20035;-74
2023/08/02 01:35:45;;;;;;;5.57;5.07;;;;;;;-140.66;100.00;55571.53;5097128;28;20020;-74
2023/08/02 01:38:31;;;;;;;5.78;5.15;;;;;;;-140.66;100.00;55571.53;5097105;28;20036;-74
2023/08/02 01:41:17;;;;;;;5.47;4.85;;;;;;;-140.66;100.00;55571.53;5096446;28;20032;-74
2023/08/02 01:44:03;;;;;;;7.95;5.13;;;;;;;-140.66;100.00;55571.53;5081588;28;20506;-74
2023/08/02 01:46:48;;;;;;;6.05;4.82;;;;;;;-140.66;100.00;55571.53;5082304;28;20028;-74
2023/08/02 01:49:34;;;;;;;7.85;4.88;;;;;;;-140.66;100.00;55571.53;5097665;28;20456;-74
2023/08/02 01:52:20;;;;;;;5.38;4.88;;;;;;;-140.66;100.00;55571.53;5082635;28;20034;-74
2023/08/02 01:55:06;;;;;;;7.05;4.85;;;;;;;-140.66;100.00;55571.53;5096797;28;20043;-75
2023/08/02 01:57:52;;;;;;;6.65;5.03;;;;;;;-140.66;100.00;55571.53;5096948;28;20035;-74
2023/08/02 02:00:37;;;;;;;6.43;5.60;;;;;;;-140.66;100.00;55571.53;5096687;28;20077;-75
2023/08/02 02:03:23;;;;;;;6.82;5.13;;;;;;;-140.66;100.00;55571.53;5096480;28;20028;-74
2023/08/02 02:06:09;;;;;;;6.78;5.05;;;;;;;-140.66;100.00;55571.53;5097686;28;20035;-75
2023/08/02 02:08:55;;;;;;;5.45;4.95;;;;;;;-140.66;100.00;55571.53;5081543;28;20094;-74
2023/08/02 02:11:40;;;;;;;5.60;5.10;;;;;;;-140.66;100.00;55571.53;5095699;28;20032;-75
2023/08/02 02:14:26;;;;;;;6.18;5.15;;;;;;;-140.66;100.00;55571.53;5096706;28;20475;-75
2023/08/02 02:17:12;;;;;;;6.25;5.07;;;;;;;-140.66;100.00;55571.53;5081593;28;20391;-75
2023/08/02 02:19:58;;;;;;;6.22;5.03;;;;;;;-140.66;100.00;55571.53;5096748;28;20577;-74
2023/08/02 02:22:43;;;;;;;6.88;5.47;;;;;;;-140.66;100.00;55571.53;5097323;28;20032;-75
2023/08/02 02:25:29;;;;;;;6.75;5.68;;;;;;;-140.66;100.00;55571.53;5097136;28;20032;-75
2023/08/02 02:28:16;;;;;;;7.30;5.80;;;;;;;-140.66;100.00;55571.53;5081740;28;20111;-75
2023/08/02 02:31:02;;;;;;;6.82;5.45;;;;;;;-140.66;100.00;55571.53;5095769;28;20024;-75
2023/08/02 02:33:48;;;;;;;6.90;5.45;;;;;;;-140.66;100.00;55571.53;5081722;28;20031;-77
2023/08/02 02:36:34;;;;;;;6.22;5.55;;;;;;;-140.66;100.00;55571.53;5081776;28;20031;-75
2023/08/02 02:39:19;;;;;;;7.55;5.78;;;;;;;-140.66;100.00;55571.53;5097738;27;20028;-75
2023/08/02 02:42:05;;;;;;;9.32;5.85;;;;;;;-140.66;100.00;55571.53;5095756;28;20063;-76
2023/08/02 02:44:51;;;;;;;6.70;5.80;;;;;;;-140.66;100.00;55571.53;5095541;28;20474;-74
2023/08/02 02:47:36;;;;;;;7.53;5.78;;;;;;;-140.66;100.00;55571.53;5095943;28;20368;-75
2023/08/02 02:50:22;;;;;;;7.10;6.18;;;;;;;-140.66;100.00;55571.53;5095094;28;20028;-75
2023/08/02 02:53:08;;;;;;;7.00;5.60;;;;;;;-140.66;100.00;55571.53;5096194;28;20020;-75
2023/08/02 02:55:56;;;;;;;6.80;6.10;;;;;;;-140.66;100.00;55571.53;5095288;28;20036;-75
2023/08/02 02:58:41;;;;;;;7.80;6.05;;;;;;;-140.66;100.00;55571.53;5096212;28;20024;-75
2023/08/02 03:01:27;;;;;;;8.55;6.00;;;;;;;-140.66;100.00;55571.53;5095625;28;20038;-75
2023/08/02 03:04:13;;;;;;;6.50;5.80;;;;;;;-140.66;100.00;55571.53;5095666;28;20039;-75
2023/08/02 03:06:59;;;;;;;8.30;6.40;;;;;;;-140.66;100.00;55571.53;5095794;28;20043;-75
2023/08/02 03:09:44;;;;;;;7.88;5.97;;;;;;;-140.66;100.00;55571.53;5080823;28;20032;-75
2023/08/02 03:12:30;;;;;;;8.48;6.40;;;;;;;-140.66;100.00;55571.53;5095664;28;20452;-74
2023/08/02 03:15:16;;;;;;;9.15;6.13;;;;;;;-140.66;100.00;55571.53;5095404;28;20085;-74
2023/08/02 03:18:01;;;;;;;10.23;6.43;;;;;;;-140.66;100.00;55571.53;5094891;28;20020;-74
2023/08/02 03:20:47;;;;;;;8.43;6.28;;;;;;;-140.66;100.00;55571.53;5081146;28;20161;-75
2023/08/02 03:23:36;;;;;;;10.73;6.50;;;;;;;-140.66;100.00;55571.53;5101316;28;20084;-75
2023/08/02 03:26:23;;;;;;;11.93;6.57;;;;;;;-140.66;100.00;55571.53;5088712;28;20460;-74
2023/08/02 03:29:08;;;;;;;8.80;6.40;;;;;;;-140.66;100.00;55571.53;5080831;28;20400;-74
2023/08/02 03:31:54;;;;;;;7.28;6.00;;;;;;;-140.66;100.00;55571.53;5081241;28;20043;-75
2023/08/02 03:34:40;;;;;;;6.82;6.03;;;;;;;-140.66;100.00;55571.53;5080446;28;20081;-73
2023/08/02 03:37:26;;;;;;;12.63;6.65;;;;;;;-140.66;100.00;55571.53;5095203;28;20038;-74
2023/08/02 03:40:11;;;;;;;10.18;6.03;;;;;;;-140.66;100.00;55571.53;5094799;28;20028;-74
2023/08/02 03:42:57;;;;;;;9.43;5.88;;;;;;;-140.66;100.00;55571.53;5089658;28;20044;-74
2023/08/02 03:45:43;;;;;;;7.20;6.25;;;;;;;-140.66;100.00;55571.53;5096837;28;20016;-74
2023/08/02 03:48:31;;;;;;;10.30;6.38;;;;;;;-140.66;100.00;55571.53;5094692;28;20028;-73
2023/08/02 03:51:16;;;;;;;7.63;5.90;;;;;;;-140.66;100.00;55571.53;5094305;28;20039;-73
2023/08/02 03:54:03;;;;;;;7.50;5.97;;;;;;;-140.66;100.00;55571.53;5080376;28;20102;-73
2023/08/02 03:56:49;;;;;;;6.97;6.03;;;;;;;-140.66;100.00;55571.53;5094433;28;20039;-74
2023/08/02 03:59:35;;;;;;;10.45;6.10;;;;;;;-140.66;100.00;55571.53;5095308;28;20028;-74
2023/08/02 04:02:21;;;;;;;7.07;5.78;;;;;;;-140.66;100.00;55571.53;5094824;28;20030;-75
2023/08/02 04:05:07;;;;;;;7.50;6.05;;;;;;;-140.66;100.00;55571.53;5094870;28;20032;-74
2023/08/02 04:07:52;;;;;;;8.77;6.13;;;;;;;-140.66;100.00;55571.53;5085227;28;20028;-74
2023/08/02 04:10:38;;;;;;;8.48;6.38;;;;;;;-140.66;100.00;55571.53;5098688;28;20031;-74
2023/08/02 04:13:24;;;;;;;10.35;6.30;;;;;;;-140.66;100.00;55571.53;5099156;28;20024;-74
2023/08/02 04:16:09;;;;;;;9.48;6.47;;;;;;;-140.66;100.00;55571.53;5098696;28;20197;-75
2023/08/02 04:18:55;;;;;;;11.45;6.72;;;;;;;-140.66;100.00;55571.53;5097952;28;20119;-74
2023/08/02 04:21:41;;;;;;;10.93;6.90;;;;;;;-140.66;100.00;55571.53;5097804;28;20039;-74
2023/08/02 04:24:27;;;;;;;10.18;6.90;;;;;;;-140.66;100.00;55571.53;5085054;28;20115;-74
2023/08/02 04:27:13;;;;;;;9.88;6.55;;;;;;;-140.66;100.00;55571.53;5084396;28;20023;-76
2023/08/02 04:29:58;;;;;;;8.10;6.45;;;;;;;-140.66;100.00;55571.53;5098427;28;20466;-75
2023/08/02 04:32:44;;;;;;;9.98;6.45;;;;;;;-140.66;100.00;55571.53;5083308;28;20031;-74
2023/08/02 04:35:30;;;;;;;16.05;6.85;;;;;;;-140.66;100.00;55571.53;5084693;28;20036;-75
2023/08/02 04:38:16;;;;;;;11.07;7.10;;;;;;;-140.66;100.00;55571.53;5098105;28;20494;-73
2023/08/02 04:41:01;;;;;;;13.32;6.55;;;;;;;-140.66;100.00;55571.53;5083190;28;20032;-74
2023/08/02 04:43:47;;;;;;;7.72;6.93;;;;;;;-140.66;100.00;55571.53;5098591;28;20383;-75
2023/08/02 04:46:33;;;;;;;11.60;6.82;;;;;;;-140.66;100.00;55571.53;5068876;28;20031;-74
2023/08/02 04:49:22;;;;;;;8.18;6.82;;;;;;;-140.66;100.00;55571.53;5098214;28;20031;-74
2023/08/02 04:52:07;;;;;;;8.07;6.63;;;;;;;-140.66;100.00;55571.53;5097752;28;20058;-74
2023/08/02 04:54:53;;;;;;;13.18;6.97;;;;;;;-140.66;100.00;55571.53;5083741;28;20097;-74
2023/08/02 04:57:39;;;;;;;10.27;6.65;;;;;;;-140.66;100.00;55571.53;5097822;28;20024;-74
2023/08/02 05:00:25;;;;;;;9.85;6.00;;;;;;;-140.66;100.00;55571.53;5097044;28;20360;-76
2023/08/02 05:03:10;;;;;;;8.20;6.45;;;;;;;-140.66;100.00;55571.53;5096122;28;20361;-75
2023/08/02 05:06:03;;;;;;;9.88;6.88;;;;;;;-140.66;100.00;55571.53;5097323;28;20384;-75
2023/08/02 05:08:49;;;;;;;17.52;7.68;;;;;;;-140.66;100.00;55571.53;5097605;28;20043;-74
2023/08/02 05:11:37;;;;;;;8.15;7.13;;;;;;;-140.66;100.00;55571.53;5082283;28;20016;-74
2023/08/02 05:14:23;;;;;;;13.23;6.93;;;;;;;-140.66;100.00;55571.53;5097181;28;20065;-74
2023/08/02 05:17:09;;;;;;;11.80;7.50;;;;;;;-140.66;100.00;55571.53;5096382;28;20115;-74
2023/08/02 05:19:55;;;;;;;10.77;7.90;;;;;;;-140.66;100.00;55571.53;5096548;28;20043;-74
2023/08/02 05:22:41;;;;;;;8.13;6.80;;;;;;;-140.66;100.00;55571.53;5097344;28;20376;-75
2023/08/02 05:25:32;;;;;;;10.43;6.43;;;;;;;-140.66;100.00;55571.53;5096908;28;20032;-74
2023/08/02 05:28:17;;;;;;;8.40;6.80;;;;;;;-140.66;100.00;55571.53;5097563;28;20035;-74
2023/08/02 05:31:09;;;;;;;8.23;7.13;;;;;;;-140.66;100.00;55571.53;5097867;28;20027;-75
2023/08/02 05:33:55;;;;;;;9.18;7.53;;;;;;;-140.66;100.00;55571.53;5097827;28;20056;-75
2023/08/02 05:36:41;;;;;;;13.57;7.28;;;;;;;-140.66;100.00;55571.53;5096376;28;20039;-74
2023/08/02 05:39:26;;;;;;;12.13;7.35;;;;;;;-140.66;100.00;55571.53;5082651;28;20111;-74
2023/08/02 05:42:12;;;;;;;10.68;6.97;;;;;;;-140.66;100.00;55571.53;5082231;28;20468;-74
2023/08/02 05:44:58;;;;;;;9.90;7.00;;;;;;;-140.66;100.00;55571.53;5096833;28;20039;-75
2023/08/02 05:47:44;;;;;;;9.60;7.63;;;;;;;-140.66;100.00;55571.53;5082886;28;20081;-75
2023/08/02 05:50:29;;;;;;;8.98;8.00;;;;;;;-140.66;100.00;55571.53;5096317;28;20028;-74
2023/08/02 05:53:15;;;;;;;8.85;7.07;;;;;;;-140.66;100.00;55571.53;5082716;28;20032;-74
2023/08/02 05:56:01;;;;;;;7.30;6.40;;;;;;;-140.66;100.00;55571.53;5092807;28;20024;-74
2023/08/02 05:58:47;;;;;;;7.45;6.65;;;;;;;-140.66;100.00;55571.53;5098223;28;20398;-76
2023/08/02 06:01:33;;;;;;;18.33;7.45;;;;;;;-140.66;100.00;55571.53;5081804;28;20466;-74
2023/08/02 06:04:20;;;;;;;8.45;7.13;;;;;;;-140.66;100.00;55571.53;5097389;28;20043;-74
2023/08/02 06:07:06;;;;;;;12.43;6.90;;;;;;;-140.66;100.00;55571.53;5095969;28;20051;-75
2023/08/02 06:09:52;;;;;;;10.75;7.25;;;;;;;-140.66;100.00;55571.53;5096134;28;20028;-75
2023/08/02 06:12:37;;;;;;;10.90;8.20;;;;;;;-140.66;100.00;55571.53;5082528;28;20516;-74
2023/08/02 06:15:23;;;;;;;10.30;7.30;;;;;;;-140.66;100.00;55571.53;5105550;28;20108;-75
2023/08/02 06:18:09;;;;;;;11.27;7.80;;;;;;;-140.66;100.00;55571.53;5096041;28;20046;-75
2023/08/02 06:20:55;;;;;;;11.68;7.40;;;;;;;-140.66;100.00;55571.53;5081614;28;20456;-74
2023/08/02 06:23:40;;;;;;;7.53;6.78;;;;;;;-140.66;100.00;55571.53;5096097;28;20042;-74
2023/08/02 06:26:27;;;;;;;9.30;7.20;;;;;;;-140.66;100.00;55571.53;5097003;28;20035;-74
2023/08/02 06:29:13;;;;;;;11.95;7.70;;;;;;;-140.66;100.00;55571.53;5095583;28;20020;-76
2023/08/02 06:31:58;;;;;;;11.77;7.68;;;;;;;-140.66;100.00;55571.53;5096102;28;20050;-76
2023/08/02 06:34:44;;;;;;;10.23;7.30;;;;;;;-140.66;100.00;55571.53;5096160;28;20413;-75
2023/08/02 06:37:30;;;;;;;9.93;7.90;;;;;;;-140.66;100.00;55571.53;5096095;28;20028;-74
2023/08/02 06:40:16;;;;;;;14.55;7.55;;;;;;;-140.66;100.00;55571.53;5095284;28;20024;-75
2023/08/02 06:43:02;;;;;;;9.40;7.53;;;;;;;-140.66;100.00;55571.53;5080242;28;20028;-74
2023/08/02 06:45:47;;;;;;;12.05;7.70;;;;;;;-140.66;100.00;55571.53;5096548;28;20467;-73
2023/08/02 06:48:33;;;;;;;8.40;7.20;;;;;;;-140.66;100.00;55571.53;5095909;28;20111;-74
2023/08/02 06:51:19;;;;;;;10.18;7.63;;;;;;;-140.66;100.00;55571.53;5080157;28;20108;-75
2023/08/02 06:54:04;;;;;;;18.20;7.53;;;;;;;-140.66;100.00;55571.53;5094995;28;20059;-74
2023/08/02 06:56:50;;;;;;;8.20;7.30;;;;;;;-140.66;100.00;55571.53;5095035;28;20031;-74
2023/08/02 06:59:36;;;;;;;18.52;7.55;;;;;;;-140.66;100.00;55571.53;5095224;28;20036;-74
2023/08/02 07:02:22;;;;;;;8.70;7.55;;;;;;;-140.66;100.00;55571.53;5080209;28;20092;-76
2023/08/02 07:05:07;;;;;;;8.35;7.40;;;;;;;-140.66;100.00;55571.53;5095659;28;20020;-75
2023/08/02 07:07:53;;;;;;;8.50;7.60;;;;;;;-140.66;100.00;55571.53;5094920;28;20032;-74
2023/08/02 07:10:39;;;;;;;11.43;8.52;;;;;;;-140.66;100.00;55571.53;5080065;28;20034;-73
2023/08/02 07:13:25;;;;;;;11.82;8.43;;;;;;;-140.66;100.00;55571.53;5095715;28;20024;-74
2023/08/02 07:16:11;;;;;;;10.23;7.72;;;;;;;-140.66;100.00;55571.53;5079910;28;20031;-74
2023/08/02 07:18:58;;;;;;;9.05;8.18;;;;;;;-140.66;100.00;55571.53;5082391;28;20097;-74
2023/08/02 07:21:44;;;;;;;10.55;8.10;;;;;;;-140.66;100.00;55571.53;5097161;28;20024;-74
2023/08/02 07:24:30;;;;;;;10.48;8.35;;;;;;;-140.66;100.00;55571.53;5096275;28;20494;-74
2023/08/02 07:27:16;;;;;;;9.43;8.15;;;;;;;-140.66;100.00;55571.53;5096376;28;20341;-75
2023/08/02 07:30:02;;;;;;;9.70;7.80;;;;;;;-140.66;100.00;55571.53;5095813;28;20364;-75
2023/08/02 07:32:48;;;;;;;10.23;7.80;;;;;;;-140.66;100.00;55571.53;5080873;28;20074;-74
2023/08/02 07:35:38;;;;;;;8.45;7.60;;;;;;;-140.66;100.00;55571.53;5095661;28;20066;-74
2023/08/02 07:38:23;;;;;;;9.60;7.50;;;;;;;-140.66;100.00;55571.53;5080428;28;20027;-74
2023/08/02 07:41:09;;;;;;;9.88;7.78;;;;;;;-140.66;100.00;55571.53;5079975;28;20028;-75
2023/08/02 07:43:55;;;;;;;12.63;8.23;;;;;;;-140.66;100.00;55571.53;5082140;28;20089;-75
2023/08/02 07:46:41;;;;;;;11.60;9.25;;;;;;;-140.66;100.00;55571.53;5094485;28;20038;-74
2023/08/02 07:49:27;;;;;;;9.38;8.05;;;;;;;-140.66;100.00;55571.53;5095412;28;20337;-73
2023/08/02 07:52:12;;;;;;;10.95;8.15;;;;;;;-140.66;100.00;55571.53;5095395;28;20032;-73
2023/08/02 07:54:58;;;;;;;10.57;7.93;;;;;;;-140.66;100.00;55571.53;5081067;28;20024;-74
2023/08/02 07:57:44;;;;;;;12.00;8.63;;;;;;;-140.66;100.00;55571.53;5094828;28;20505;-75
2023/08/02 08:00:30;;;;;;;10.40;8.40;;;;;;;-140.66;100.00;55571.53;5079751;28;20067;-73
2023/08/02 08:03:15;;;;;;;8.90;7.97;;;;;;;-140.66;100.00;55571.53;5094241;28;20032;-74
2023/08/02 08:06:12;;;;;;;10.18;7.93;;;;;;;-140.66;100.00;55571.53;5094627;28;20016;-75
2023/08/02 08:08:58;;;;;;;11.10;8.07;;;;;;;-140.66;100.00;55571.53;5094622;28;20353;-75
2023/08/02 08:11:44;;;;;;;8.95;8.05;;;;;;;-140.66;100.00;55571.53;5080809;28;20024;-74
2023/08/02 08:14:30;;;;;;;9.00;8.10;;;;;;;-140.66;100.00;55571.53;5096889;28;20101;-73
2023/08/02 08:17:16;;;;;;;10.15;7.70;;;;;;;-140.66;100.00;55571.53;5081004;28;20035;-75
2023/08/02 08:20:05;;;;;;;9.57;8.15;;;;;;;-140.66;100.00;55571.53;5094562;28;20044;-74
2023/08/02 08:22:51;;;;;;;9.40;7.70;;;;;;;-140.66;100.00;55571.53;5094084;28;20027;-74
2023/08/02 08:25:37;;;;;;;9.13;8.07;;;;;;;-140.66;100.00;55571.53;5094628;28;20024;-74
2023/08/02 08:28:23;;;;;;;13.38;8.65;;;;;;;-140.66;100.00;55571.53;5085923;28;20088;-73
2023/08/02 08:31:09;;;;;;;8.35;7.55;;;;;;;-140.66;100.00;55571.53;5099107;28;20020;-73
2023/08/02 08:33:55;;;;;;;11.25;7.93;;;;;;;-140.66;100.00;55571.53;5096622;28;20020;-74
2023/08/02 08:36:40;;;;;;;10.55;7.90;;;;;;;-140.66;100.00;55571.53;5080534;28;20452;-73
2023/08/02 08:39:26;;;;;;;14.57;8.13;;;;;;;-140.66;100.00;55571.53;5095398;28;20102;-74
2023/08/02 08:42:12;;;;;;;11.02;8.55;;;;;;;-140.66;100.00;55571.53;5095217;28;20020;-75
2023/08/02 08:44:59;;;;;;;13.27;7.80;;;;;;;-140.66;100.00;55571.53;5095046;28;20428;-73
2023/08/02 08:47:46;;;;;;;9.50;8.50;;;;;;;-140.66;100.00;55571.53;5098783;28;20035;-72
2023/08/02 08:50:32;;;;;;;11.02;7.82;;;;;;;-140.66;100.00;55571.53;5099704;28;20134;-75
2023/08/02 08:53:29;;;;;;;11.05;7.80;;;;;;;-140.66;100.00;55571.53;5103011;28;20043;-75
2023/08/02 08:56:23;;;;;;;16.27;8.35;;;;;;;-140.66;100.00;55571.53;5092208;28;20055;-74
2023/08/02 08:59:09;;;;;;;8.93;7.50;;;;;;;-140.66;100.00;55571.53;5086694;28;20102;-73
2023/08/02 09:01:57;;;;;;;12.30;7.55;;;;;;;-140.66;100.00;55571.53;5104412;28;20085;-76
2023/08/02 09:04:44;;;;;;;8.38;7.57;;;;;;;-140.66;100.00;55571.53;5101621;28;20513;-73
2023/08/02 09:07:31;;;;;;;11.00;8.02;;;;;;;-140.66;100.00;55571.53;5086103;28;20035;-74
2023/08/02 09:10:16;;;;;;;11.05;8.10;;;;;;;-140.66;100.00;55571.53;5102635;28;20463;-74
2023/08/02 09:13:02;;;;;;;11.82;7.90;;;;;;;-140.66;100.00;55571.53;5087818;28;20122;-75
2023/08/02 09:16:03;;;;;;;15.35;7.80;;;;;;;-140.66;100.00;55571.53;5102066;28;20057;-74
2023/08/02 09:18:49;;;;;;;10.02;8.45;;;;;;;-140.66;100.00;55571.53;5088049;28;20063;-74
2023/08/02 09:21:35;;;;;;;8.30;7.50;;;;;;;-140.66;100.00;55571.53;5101328;28;20024;-72
2023/08/02 09:24:32;;;;;;;10.35;7.88;;;;;;;-140.66;100.00;55571.53;5103164;28;20028;-75
2023/08/02 09:27:20;;;;;;;10.43;7.70;;;;;;;-140.66;100.00;55571.53;5101490;28;20119;-74
2023/08/02 09:30:06;;;;;;;10.40;7.63;;;;;;;-140.66;100.00;55571.53;5073268;28;20028;-74
2023/08/02 09:33:06;;;;;;;15.63;7.55;;;;;;;-140.66;100.00;55571.53;5099958;28;20134;-73
2023/08/02 09:35:52;;;;;;;15.65;8.80;;;;;;;-140.66;100.00;55571.53;5100684;28;20032;-74
2023/08/02 09:38:38;;;;;;;9.13;7.10;;;;;;;-140.66;100.00;55571.53;5101320;28;20104;-74
2023/08/02 09:41:24;;;;;;;10.90;7.35;;;;;;;-140.66;100.00;55571.53;5098174;28;20020;-75
2023/08/02 09:44:18;;;;;;;7.60;6.80;;;;;;;-140.66;100.00;55571.53;5100648;28;20024;-74
2023/08/02 09:47:12;;;;;;;9.07;7.18;;;;;;;-140.66;100.00;55571.53;5086905;28;20055;-74
2023/08/02 09:50:07;;;;;;;13.43;7.07;;;;;;;-140.66;100.00;55571.53;5099608;28;20032;-73
2023/08/02 09:52:53;;;;;;;9.52;6.72;;;;;;;-140.66;100.00;55571.53;5098893;28;20020;-75
2023/08/02 09:55:41;;;;;;;12.10;6.20;;;;;;;-140.66;100.00;55571.53;5097138;28;20031;-74
2023/08/02 09:58:29;;;;;;;8.00;6.15;;;;;;;-140.66;100.00;55571.53;5097798;28;20103;-75
2023/08/02 10:01:15;;;;;;;7.03;6.07;;;;;;;-140.66;100.00;55571.53;5081840;28;20028;-73
2023/08/02 10:04:10;;;;;;;7.80;6.18;;;;;;;-140.66;100.00;55571.53;5095899;28;20066;-74
2023/08/02 10:07:02;;;;;;;6.72;5.55;;;;;;;-140.66;100.00;55571.53;5082363;28;20023;-75
2023/08/02 10:09:50;;;;;;;6.53;5.55;;;;;;;-140.66;100.00;55571.53;5096478;28;20034;-75
2023/08/02 10:12:37;;;;;;;8.23;5.43;;;;;;;-140.66;100.00;55571.53;5096446;28;20111;-74
2023/08/02 10:15:27;;;;;;;6.57;5.35;;;;;;;-140.66;100.00;55571.53;5096859;28;20055;-76
2023/08/02 10:18:13;;;;;;;8.43;5.30;;;;;;;-140.66;100.00;55571.53;5098589;28;20093;-75
2023/08/02 10:21:07;;;;;;;7.90;6.43;;;;;;;-140.66;100.00;55571.53;5083165;28;20088;-75
2023/08/02 10:23:53;;;;;;;5.85;5.20;;;;;;;-140.66;100.00;55571.53;5097351;28;20432;-78
2023/08/02 10:26:46;;;;;;;7.50;6.03;;;;;;;-140.66;100.00;55571.53;5097092;28;20036;-75
2023/08/02 10:29:34;;;;;;;6.25;5.50;;;;;;;-140.66;100.00;55571.53;5097920;28;20413;-77
2023/08/02 10:32:21;;;;;;;9.07;6.43;;;;;;;-140.66;100.00;55571.53;5097764;28;20024;-75
2023/08/02 10:35:07;;;;;;;7.28;5.43;;;;;;;-140.66;100.00;55571.53;5082134;28;20020;-75
2023/08/02 10:37:54;;;;;;;9.02;5.30;;;;;;;-140.66;100.00;55571.53;5082061;28;20031;-75
2023/08/02 10:41:29;;;;;;;10.57;5.65;;;;;;;-140.66;100.00;55571.53;5096229;28;20043;-74
2023/08/02 10:44:15;;;;;;;8.63;6.30;;;;;;;-140.66;100.00;55571.53;5083887;28;20428;-75
2023/08/02 10:47:23;;;;;;;8.48;5.50;;;;;;;-140.66;100.00;55571.53;5096803;28;20121;-75
2023/08/02 10:50:45;;;;;;;8.07;4.95;;;;;;;-140.66;100.00;55571.53;5095775;28;20508;-75
2023/08/02 10:53:31;;;;;;;11.90;6.30;;;;;;;-140.66;100.00;55571.53;5081565;28;20102;-75
2023/08/02 10:56:17;;;;;;;9.77;6.03;;;;;;;-140.66;100.00;55571.53;5096414;28;20035;-75
2023/08/02 10:59:03;;;;;;;8.23;6.03;;;;;;;-140.66;100.00;55571.53;5095538;28;20028;-75
2023/08/02 11:02:12;;;;;;;14.57;6.28;;;;;;;-140.66;100.00;55571.53;5096310;28;20070;-74
2023/08/02 11:04:58;;;;;;;10.48;6.03;;;;;;;-140.66;100.00;55571.53;5080260;28;20433;-75
2023/08/02 11:07:58;;;;;;;15.70;5.47;;;;;;;-140.66;100.00;55571.53;5083934;28;20329;-76
2023/08/02 11:10:50;;;;;;;13.43;5.68;;;;;;;-140.66;100.00;55571.53;5099370;28;20456;-76
2023/08/02 11:13:40;;;;;;;7.78;5.60;;;;;;;-140.66;100.00;55571.53;5096412;28;20031;-74
2023/08/02 11:16:29;;;;;;;18.73;6.40;;;;;;;-140.66;100.00;55571.53;5099867;28;20039;-77
2023/08/02 11:19:16;;;;;;;6.88;5.22;;;;;;;-140.66;100.00;55571.53;5099217;28;20055;-75
2023/08/02 11:22:02;;;;;;;9.23;5.38;;;;;;;-140.66;100.00;55571.53;5085079;28;20032;-76
2023/08/02 11:24:53;;;;;;;7.53;5.32;;;;;;;-140.66;100.00;55571.53;5099138;28;20024;-75
2023/08/02 11:28:03;;;;;;;8.65;5.50;;;;;;;-140.66;100.00;55571.53;5098984;28;20035;-76
2023/08/02 11:30:50;;;;;;;6.78;5.68;;;;;;;-140.66;100.00;55571.53;5082322;28;20031;-72
2023/08/02 11:33:37;;;;;;;6.90;5.97;;;;;;;-140.66;100.00;55571.53;5097775;28;20016;-73
2023/08/02 11:36:23;;;;;;;9.30;5.88;;;;;;;-140.66;100.00;55571.53;5098428;28;20107;-74
2023/08/02 11:39:14;;;;;;;8.38;5.68;;;;;;;-140.66;100.00;55571.53;5099122;28;20028;-74
2023/08/02 11:42:04;;;;;;;7.95;5.88;;;;;;;-140.66;100.00;55571.53;5099328;28;20036;-75
2023/08/02 11:44:50;;;;;;;7.32;5.78;;;;;;;-140.66;100.00;55571.53;5101839;28;20028;-74
2023/08/02 11:47:36;;;;;;;6.68;6.07;;;;;;;-140.66;100.00;55571.53;5101064;28;20073;-72
2023/08/02 11:50:24;;;;;;;7.78;5.53;;;;;;;-140.66;100.00;55571.53;5114683;28;20008;-71
2023/08/02 11:53:10;;;;;;;8.32;5.88;;;;;;;-140.66;100.00;55571.53;5094706;28;20028;-75
2023/08/02 11:55:56;;;;;;;10.70;5.80;;;;;;;-140.66;100.00;55571.53;5107932;28;20024;-72
2023/08/02 11:58:44;;;;;;;8.32;5.50;;;;;;;-140.66;100.00;55571.53;5107947;28;20024;-72
2023/08/02 12:01:30;;;;;;;7.60;6.07;;;;;;;-140.66;100.00;55571.53;5107746;28;20040;-74
2023/08/02 12:04:16;;;;;;;8.02;6.03;;;;;;;-140.66;100.00;55571.53;5109551;28;20039;-72
2023/08/02 12:07:01;;;;;;;7.65;6.00;;;;;;;-140.66;100.00;55571.53;5094980;28;20119;-72
2023/08/02 12:09:48;;;;;;;12.77;6.35;;;;;;;-140.66;100.00;55571.53;5106232;28;20020;-71
2023/08/02 12:12:35;;;;;;;9.57;6.65;;;;;;;-140.66;100.00;55571.53;5088782;28;20031;-72
2023/08/02 12:15:21;;;;;;;7.55;6.53;;;;;;;-140.66;100.00;55571.53;5103564;28;20483;-72
2023/08/02 12:18:07;;;;;;;9.73;7.63;;;;;;;-140.66;100.00;55571.53;5106516;28;20051;-72
2023/08/02 12:20:53;;;;;;;17.77;10.15;;;;;;;-140.66;100.00;55571.53;5083903;28;20028;-73
2023/08/02 12:23:38;;;;;;;11.38;8.25;;;;;;;-140.66;100.00;55571.53;5094676;28;20453;-75
2023/08/02 12:26:32;;;;;;;12.40;9.88;;;;;;;-140.66;100.00;55571.53;5095957;28;20024;-75
2023/08/02 12:29:23;;;;;;;10.40;7.50;;;;;;;-140.66;100.00;55571.53;5099399;28;20409;-74
2023/08/02 12:32:10;;;;;;;8.57;6.88;;;;;;;-140.66;100.00;55571.53;5098826;28;20035;-74
2023/08/02 12:35:05;;;;;;;9.98;6.95;;;;;;;-140.66;100.00;55571.53;5098574;28;20070;-73
2023/08/02 12:37:52;;;;;;;11.05;6.80;;;;;;;-140.66;100.00;55571.53;5098180;28;20031;-74